Data for 07/18/2008

Time Sea-Level Adjusted Pressure Absolute Pressure Temperature Relative Humidity Dew Point   
(mb) (inHg) (mb) (inHg) (C) (F) (%) (C) (F)
00:05 1019 30.09 848 25.04 14.8 58.6 68 8.9 48
00:10 1019 30.09 848 25.04 14.9 58.7 67 8.9 48
00:15 1019 30.09 848 25.04 14.8 58.6 68 8.9 48
00:20 1019 30.09 848 25.04 14.7 58.5 69 9.1 48.5
00:25 1019 30.09 848 25.04 14.5 58.1 68 8.7 47.7
00:30 1019 30.09 848 25.04 14.6 58.3 67 8.7 47.6
00:35 1019 30.09 848 25.04 14.8 58.6 68 8.9 48
00:40 1019 30.09 848 25.04 14.5 58.2 68 8.8 47.9
00:45 1019 30.09 848 25.04 14.4 57.9 69 8.8 47.8
00:50 1019 30.09 848 25.04 14.2 57.6 69 8.7 47.7
00:55 1019 30.09 848 25.04 13.9 57.1 71 8.9 48
01:00 1019 30.09 848 25.04 13.5 56.3 73 8.8 47.8
01:05 1019 30.09 848 25.04 13.2 55.8 74 8.7 47.7
01:10 1019 30.09 848 25.04 13 55.4 75 8.6 47.6
01:15 1018 30.06 848 25.04 13 55.4 74 8.5 47.4
01:20 1018 30.06 848 25.04 13.2 55.8 73 8.6 47.5
01:25 1018 30.06 848 25.04 13.5 56.2 71 8.3 47
01:30 1018 30.06 848 25.04 13.7 56.7 70 8.4 47.1
01:35 1018 30.06 847 25.01 13.8 56.8 71 8.6 47.5
01:40 1018 30.06 847 25.01 13.6 56.4 72 8.6 47.5
01:45 1018 30.06 847 25.01 13.4 56.1 73 8.7 47.6
01:50 1018 30.06 847 25.01 13.3 55.9 73 8.7 47.6
01:55 1018 30.06 847 25.01 13.3 55.9 74 8.7 47.6
02:00 1018 30.06 847 25.01 13.5 56.2 72 8.5 47.3
02:05 1018 30.06 847 25.01 13.7 56.7 71 8.6 47.5
02:10 1018 30.06 848 25.04 13.9 57 67 8 46.5
02:15 1018 30.06 848 25.04 14.1 57.4 67 8.2 46.7
02:20 1018 30.06 848 25.04 13.9 57.1 68 8.2 46.8
02:25 1018 30.06 847 25.01 13.9 57 67 7.8 46.1
02:30 1018 30.06 847 25.01 14.2 57.5 67 8.2 46.8
02:35 1018 30.06 847 25.01 14 57.2 69 8.5 47.3
02:40 1018 30.06 847 25.01 13.7 56.7 70 8.5 47.3
02:45 1018 30.06 847 25.01 13.5 56.4 72 8.7 47.7
02:50 1018 30.06 847 25.01 13.5 56.3 73 8.8 47.8
02:55 1018 30.06 847 25.01 13.4 56.1 73 8.7 47.6
03:00 1018 30.06 847 25.01 13.3 55.9 73 8.5 47.3
03:05 1018 30.06 847 25.01 13.2 55.7 72 8.3 47
03:10 1018 30.06 847 25.01 13.3 55.9 72 8.4 47.1
03:15 1018 30.06 847 25.01 13.4 56.2 70 8.2 46.8
03:20 1018 30.06 847 25.01 13.6 56.4 71 8.4 47.1
03:25 1018 30.06 847 25.01 13.4 56.1 72 8.5 47.2
03:30 1018 30.06 847 25.01 13.3 56 72 8.3 47
03:35 1018 30.06 847 25.01 13.4 56.2 72 8.5 47.4
03:40 1018 30.06 847 25.01 13 55.4 75 8.7 47.7
03:45 1018 30.06 847 25.01 12.6 54.7 76 8.5 47.4
03:50 1018 30.06 847 25.01 12.7 54.9 75 8.4 47.2
03:55 1018 30.06 847 25.01 12.9 55.2 74 8.5 47.3
04:00 1018 30.06 847 25.01 12.7 54.9 76 8.6 47.5
04:05 1018 30.06 847 25.01 12.5 54.4 76 8.4 47.2
04:10 1018 30.06 847 25.01 12.2 54 76 8.1 46.6
04:15 1018 30.06 847 25.01 12.1 53.8 76 8 46.4
04:20 1018 30.06 847 25.01 12.1 53.7 75 7.9 46.2
04:25 1018 30.06 847 25.01 12.1 53.7 76 8 46.3
04:30 1018 30.06 847 25.01 11.8 53.2 77 7.9 46.1
04:35 1018 30.06 847 25.01 11.5 52.8 79 8.1 46.6
04:40 1018 30.06 847 25.01 11.4 52.5 78 7.8 46
04:45 1018 30.06 847 25.01 11.7 53.1 78 7.9 46.3
04:50 1018 30.06 847 25.01 11.9 53.3 77 8 46.4
04:55 1018 30.06 847 25.01 12.1 53.7 76 8 46.4
05:00 1018 30.06 847 25.01 12.1 53.8 77 8.2 46.8
05:05 1018 30.06 847 25.01 12 53.7 76 8 46.4
05:10 1018 30.06 848 25.04 12.2 54 74 7.7 45.9
05:15 1018 30.06 848 25.04 12.4 54.3 72 7.6 45.7
05:20 1018 30.06 847 25.01 12.4 54.3 74 7.9 46.3
05:25 1018 30.06 847 25.01 12.1 53.7 77 8.1 46.6
05:30 1018 30.06 847 25.01 11.8 53.2 78 8 46.4
05:35 1018 30.06 847 25.01 11.6 52.9 79 8.1 46.6
05:40 1018 30.06 847 25.01 11.5 52.8 79 8.1 46.6
05:45 1018 30.06 847 25.01 11.6 52.8 78 7.9 46.3
05:50 1018 30.06 847 25.01 11.6 52.9 78 7.9 46.2
05:55 1018 30.06 847 25.01 11.6 52.8 79 8 46.4
06:00 1018 30.06 847 25.01 11.4 52.5 79 8 46.4
06:05 1018 30.06 847 25.01 11.2 52.1 81 8.1 46.5
06:10 1018 30.06 847 25.01 11 51.8 79 7.6 45.7
06:15 1018 30.06 847 25.01 11.5 52.7 77 7.7 45.9
06:20 1018 30.06 847 25.01 11.2 52.2 78 7.7 45.8
06:25 1018 30.06 847 25.01 11.1 52 79 7.7 45.8
06:30 1018 30.06 847 25.01 11.2 52.1 79 7.7 45.9
06:35 1018 30.06 847 25.01 11.2 52.2 79 7.7 45.8
06:40 1018 30.06 847 25.01 11.2 52.1 79 7.7 45.8
06:45 1018 30.06 847 25.01 11.4 52.5 78 7.7 45.8
06:50 1018 30.06 847 25.01 11.5 52.8 78 7.8 46
06:55 1018 30.06 847 25.01 11.7 53 77 7.8 46.1
07:00 1018 30.06 847 25.01 11.8 53.3 77 8 46.3
07:05 1018 30.06 847 25.01 12.2 54 75 8 46.4
07:10 1018 30.06 847 25.01 12.6 54.7 75 8.2 46.8
07:15 1018 30.06 847 25.01 13 55.5 72 8.2 46.8
07:20 1018 30.06 847 25.01 13.5 56.3 71 8.4 47.2
07:25 1018 30.06 847 25.01 13.6 56.5 70 8.4 47.1
07:30 1018 30.06 847 25.01 13.7 56.7 70 8.5 47.3
07:35 1018 30.06 847 25.01 13.9 57 70 8.5 47.3
07:40 1018 30.06 847 25.01 14 57.3 69 8.5 47.4
07:45 1018 30.06 847 25.01 14.4 58 68 8.7 47.6
07:50 1018 30.06 847 25.01 14.8 58.7 67 8.8 47.9
07:55 1018 30.06 847 25.01 15.6 60 63 8.7 47.6
08:00 1018 30.06 847 25.01 16.2 61.1 62 9 48.2
08:05 1018 30.06 847 25.01 16.7 62 61 9.1 48.4
08:10 1018 30.06 847 25.01 16.9 62.4 59 9 48.2
08:15 1018 30.06 847 25.01 16.5 61.6 61 8.9 48
08:20 1018 30.06 847 25.01 15.5 59.9 63 8.5 47.3
08:25 1018 30.06 847 25.01 15.6 60 63 8.6 47.5
08:30 1018 30.06 847 25.01 15.9 60.6 61 8.4 47.2
08:35 1018 30.06 847 25.01 16.1 60.9 63 9.2 48.5
08:40 1018 30.06 847 25.01 15.5 59.8 64 8.7 47.7
08:45 1018 30.06 847 25.01 15.4 59.7 64 8.7 47.6
08:50 1018 30.06 847 25.01 16.2 61.1 61 8.8 47.8
08:55 1018 30.06 847 25.01 16.8 62.2 58 8.5 47.3
09:00 1018 30.06 847 25.01 17 62.5 59 9.1 48.4
09:05 1018 30.06 847 25.01 17.1 62.7 59 9 48.2
09:10 1018 30.06 848 25.04 17.4 63.3 58 9 48.3
09:15 1018 30.06 848 25.04 17.5 63.5 58 9.2 48.6
09:20 1018 30.06 848 25.04 17.7 63.9 59 9.7 49.4
09:25 1018 30.06 848 25.04 17.8 64 55 8.9 47.9
09:30 1018 30.06 848 25.04 17.7 63.8 59 9.8 49.6
09:35 1019 30.09 848 25.04 17.9 64.1 58 9.6 49.3
09:40 1019 30.09 848 25.04 18.4 65.1 59 10.3 50.6
09:45 1019 30.09 848 25.04 18.6 65.4 58 10.3 50.5
09:50 1019 30.09 848 25.04 18.7 65.7 58 10.3 50.5
09:55 1019 30.09 848 25.04 18.9 65.9 57 10.1 50.2
10:00 1019 30.09 848 25.04 18.8 65.8 56 9.8 49.7
10:05 1019 30.09 848 25.04 19.1 66.3 55 9.8 49.7
10:10 1019 30.09 848 25.04 19.4 66.9 53 9.7 49.5
10:15 1019 30.09 848 25.04 19.7 67.4 54 10.1 50.2
10:20 1019 30.09 848 25.04 19.2 66.5 55 10.1 50.3
10:25 1019 30.09 848 25.04 18.9 65.9 55 9.6 49.3
10:30 1019 30.09 848 25.04 18.8 65.9 52 8.8 47.8
10:35 1019 30.09 848 25.04 18.7 65.6 52 8.7 47.6
10:40 1019 30.09 848 25.04 18.8 65.8 53 9.1 48.3
10:45 1019 30.09 848 25.04 19.2 66.6 51 8.9 48
10:50 1019 30.09 848 25.04 20.2 68.3 47 8.7 47.7
10:55 1019 30.09 848 25.04 20.4 68.6 48 9.1 48.3
11:00 1019 30.09 848 25.04 20.7 69.3 46 8.8 47.9
11:05 1019 30.09 848 25.04 21 69.7 47 9.3 48.7
11:10 1019 30.09 848 25.04 20.9 69.6 47 9.2 48.6
11:15 1019 30.09 848 25.04 21.3 70.3 45 9 48.2
11:20 1019 30.09 848 25.04 21.7 71.1 43 8.9 48
11:25 1019 30.09 848 25.04 21.9 71.3 44 9.2 48.5
11:30 1018 30.06 848 25.04 21.8 71.2 45 9.4 48.9
11:35 1018 30.06 848 25.04 21.6 70.9 43 8.7 47.6
11:40 1018 30.06 847 25.01 21.8 71.3 43 9 48.2
11:45 1018 30.06 847 25.01 21.7 71.1 43 8.7 47.7
11:50 1018 30.06 847 25.01 21.8 71.3 44 9.1 48.4
11:55 1018 30.06 847 25.01 22.1 71.8 41 8.5 47.2
12:00 1018 30.06 847 25.01 21.4 70.5 44 8.9 48
12:05 1018 30.06 847 25.01 21 69.8 44 8.5 47.3
12:10 1018 30.06 847 25.01 21.6 70.8 43 8.8 47.8
12:15 1018 30.06 847 25.01 22.3 72.2 39 8 46.4
12:20 1018 30.06 847 25.01 21.2 70.1 42 8 46.4
12:25 1017 30.03 847 25.01 21.3 70.4 43 8.2 46.8
12:30 1017 30.03 847 25.01 21.4 70.6 40 7.4 45.4
12:35 1017 30.03 846 24.98 22.1 71.8 39 7.7 45.9
12:40 1017 30.03 846 24.98 22.7 72.8 37 7.4 45.4
12:45 1017 30.03 846 24.98 22.4 72.4 37 7.4 45.3
12:50 1017 30.03 846 24.98 23 73.4 37 7.9 46.2
12:55 1017 30.03 846 24.98 23.5 74.3 36 7.8 46
13:00 1017 30.03 846 24.98 23.3 73.9 37 8 46.4
13:05 1017 30.03 846 24.98 23.4 74 38 8.5 47.4
13:10 1016 30 846 24.98 24 75.1 33 6.9 44.4
13:15 1016 30 846 24.98 24.2 75.5 33 7.1 44.7
13:20 1016 30 845 24.95 24.4 75.9 32 6.8 44.3
13:25 1016 30 845 24.95 24.8 76.7 31 6.6 43.9
13:30 1016 30 845 24.95 25.4 77.7 28 5.8 42.4
13:35 1016 30 845 24.95 26.7 80 27 6.2 43.2
13:40 1016 30 845 24.95 27.3 81.2 28 7.4 45.3
13:45 1016 30 845 24.95 27.4 81.3 28 7.7 45.8
13:50 1016 30 845 24.95 26.3 79.3 30 7.7 45.9
13:55 1016 30 845 24.95 25.8 78.5 33 8.5 47.2
14:00 1016 30 845 24.95 25.5 77.9 32 7.8 46
14:05 1016 30 845 24.95 26.6 79.8 28 6.7 44.1
14:10 1016 30 845 24.95 26.6 80 29 7.6 45.6
14:15 1016 30 845 24.95 26.3 79.3 31 8.2 46.7
14:20 1016 30 845 24.95 25.9 78.7 30 7.3 45.2
14:25 1016 30 845 24.95 26.1 79 30 7.6 45.7
14:30 1016 30 845 24.95 26.5 79.6 29 7.4 45.3
14:35 1016 30 845 24.95 26.5 79.6 30 7.9 46.1
14:40 1016 30 845 24.95 26 78.8 31 8.1 46.5
14:45 1016 30 845 24.95 26 78.8 29 7 44.5
14:50 1016 30 845 24.95 26.2 79.2 31 8 46.4
14:55 1016 30 845 24.95 26.1 78.9 29 6.7 44.1
15:00 1015 29.97 845 24.95 26.6 80 28 6.8 44.3
15:05 1015 29.97 845 24.95 26.4 79.5 31 8 46.4
15:10 1015 29.97 845 24.95 25.1 77.1 30 6.7 44.1
15:15 1015 29.97 844 24.92 25.2 77.3 28 5.8 42.5
15:20 1015 29.97 844 24.92 25.9 78.7 28 6 42.9
15:25 1015 29.97 844 24.92 25.3 77.6 27 5.3 41.6
15:30 1015 29.97 844 24.92 24.8 76.7 28 5.4 41.6
15:35 1015 29.97 844 24.92 24.7 76.4 27 4.9 40.7
15:40 1015 29.97 844 24.92 24.8 76.6 27 5 40.9
15:45 1015 29.97 844 24.92 24.2 75.5 33 7.3 45.1
15:50 1015 29.97 844 24.92 23.3 73.9 45 10.7 51.3
15:55 1016 30 845 24.95 19.6 67.3 75 15.2 59.4
16:00 1016 30 845 24.95 13.2 55.8 83 10.4 50.7
16:05 1016 30 845 24.95 13.2 55.7 77 9.2 48.6
16:10 1015 29.97 845 24.95 15 59 62 7.7 45.9
16:15 1016 30 845 24.95 16.9 62.4 57 8.4 47.1
16:20 1016 30 845 24.95 17.8 64 56 9.1 48.4
16:25 1016 30 845 24.95 18.1 64.6 56 9.3 48.8
16:30 1016 30 845 24.95 17 62.6 70 11.5 52.7
16:35 1016 30 845 24.95 16.4 61.6 64 9.6 49.2
16:40 1016 30 846 24.98 17.5 63.6 53 8 46.4
16:45 1016 30 846 24.98 17.6 63.7 64 10.8 51.4
16:50 1016 30 845 24.95 16.7 62.1 75 12.2 54
16:55 1016 30 845 24.95 16.2 61.1 76 11.9 53.4
17:00 1016 30 845 24.95 16.8 62.2 75 12.4 54.3
17:05 1016 30 845 24.95 17.2 63 80 13.7 56.6
17:10 1016 30 845 24.95 17.2 63 75 12.8 55
17:15 1016 30 846 24.98 17.6 63.7 75 13.1 55.6
17:20 1017 30.03 846 24.98 17.9 64.2 66 11.5 52.8
17:25 1017 30.03 846 24.98 17 62.6 69 11.4 52.4
17:30 1017 30.03 846 24.98 16.5 61.7 78 12.6 54.8
17:35 1016 30 846 24.98 16.1 61 80 12.6 54.7
17:40 1017 30.03 846 24.98 15.8 60.5 77 11.9 53.4
17:45 1017 30.03 846 24.98 15.8 60.5 75 11.4 52.5
17:50 1017 30.03 846 24.98 15.8 60.4 74 11.2 52.1
17:55 1016 30 846 24.98 15.9 60.7 71 10.7 51.3
18:00 1016 30 845 24.95 16 60.9 71 10.9 51.6
18:05 1016 30 845 24.95 15.9 60.7 73 11 51.9
18:10 1016 30 845 24.95 15.8 60.4 73 11 51.8
18:15 1016 30 845 24.95 15.8 60.4 73 11 51.8
18:20 1016 30 845 24.95 15.7 60.3 73 11 51.8
18:25 1016 30 845 24.95 15.7 60.3 73 10.9 51.7
18:30 1016 30 845 24.95 15.7 60.3 73 10.8 51.5
18:35 1016 30 845 24.95 15.7 60.3 72 10.7 51.3
18:40 1016 30 845 24.95 15.7 60.3 71 10.5 51
18:45 1016 30 845 24.95 15.8 60.5 71 10.6 51.1
18:50 1016 30 846 24.98 16 60.7 68 10.2 50.4
18:55 1017 30.03 846 24.98 16.3 61.4 69 10.6 51.1
19:00 1016 30 846 24.98 16.2 61.2 70 10.9 51.5
19:05 1016 30 846 24.98 15.9 60.5 73 11.1 52
19:10 1017 30.03 846 24.98 15.6 60 74 11 51.7
19:15 1017 30.03 846 24.98 15.5 59.9 73 10.7 51.3
19:20 1017 30.03 846 24.98 15.6 60.2 72 10.7 51.2
19:25 1017 30.03 846 24.98 15.7 60.3 71 10.6 51.1
19:30 1017 30.03 846 24.98 15.6 60.1 72 10.7 51.3
19:35 1017 30.03 846 24.98 15.4 59.6 74 10.9 51.6
19:40 1016 30 846 24.98 15.1 59.2 76 10.9 51.6
19:45 1016 30 845 24.95 15 59 76 10.8 51.4
19:50 1017 30.03 846 24.98 15.1 59.2 73 10.4 50.7
19:55 1017 30.03 846 24.98 15.2 59.4 74 10.7 51.2
20:00 1017 30.03 846 24.98 15.4 59.7 75 11 51.7
20:05 1017 30.03 846 24.98 15.5 59.8 74 10.8 51.5
20:10 1017 30.03 846 24.98 15.7 60.2 70 10.3 50.5
20:15 1016 30 846 24.98 15.9 60.7 69 10.3 50.5
20:20 1016 30 845 24.95 15.9 60.6 71 10.7 51.3
20:25 1016 30 845 24.95 15.8 60.5 68 10.1 50.1
20:30 1016 30 845 24.95 16.1 60.9 65 9.5 49
20:35 1016 30 845 24.95 16.3 61.3 62 9 48.1
20:40 1016 30 845 24.95 15.9 60.7 69 10.4 50.8
20:45 1016 30 845 24.95 15.4 59.7 68 9.7 49.4
20:50 1016 30 845 24.95 15.1 59.3 71 10 50.1
20:55 1016 30 845 24.95 14.8 58.6 72 9.9 49.8
21:00 1016 30 845 24.95 14.7 58.5 70 9.3 48.8
21:05 1016 30 845 24.95 14.9 58.9 69 9.3 48.7
21:10 1016 30 845 24.95 15 59 68 9.3 48.7
21:15 1016 30 845 24.95 15 58.9 69 9.4 48.9
21:20 1016 30 845 24.95 14.9 58.8 69 9.3 48.7
21:25 1016 30 845 24.95 14.8 58.7 67 8.9 48
21:30 1016 30 845 24.95 14.9 58.8 68 9 48.2
21:35 1016 30 845 24.95 14.8 58.6 68 9.1 48.3
21:40 1016 30 845 24.95 14.6 58.2 69 9.1 48.4
21:45 1016 30 845 24.95 14.4 57.9 71 9.3 48.8
21:50 1016 30 846 24.98 14.1 57.3 74 9.5 49.1
21:55 1016 30 846 24.98 13.9 57 73 9.2 48.6
22:00 1016 30 846 24.98 13.9 57 74 9.4 49
22:05 1017 30.03 846 24.98 13.8 56.8 74 9.3 48.7
22:10 1017 30.03 846 24.98 13.7 56.6 75 9.3 48.7
22:15 1017 30.03 846 24.98 13.6 56.4 75 9.2 48.6
22:20 1017 30.03 846 24.98 13.4 56.2 75 9.1 48.4
22:25 1017 30.03 846 24.98 13.6 56.5 71 8.5 47.2
22:30 1017 30.03 846 24.98 13.7 56.6 75 9.2 48.6
22:35 1017 30.03 846 24.98 13.5 56.2 75 9.1 48.5
22:40 1017 30.03 846 24.98 13.2 55.7 78 9.5 49.1
22:45 1017 30.03 846 24.98 12.7 54.9 77 8.8 47.9
22:50 1017 30.03 846 24.98 12.7 54.8 77 8.8 47.9
22:55 1017 30.03 846 24.98 12.5 54.5 79 9 48.2
23:00 1017 30.03 846 24.98 12.3 54.1 79 8.7 47.6
23:05 1017 30.03 846 24.98 12.2 53.9 79 8.8 47.8
23:10 1017 30.03 846 24.98 12.1 53.7 79 8.5 47.3
23:15 1017 30.03 846 24.98 12.3 54.1 79 8.7 47.6
23:20 1017 30.03 846 24.98 12.1 53.7 79 8.6 47.4
23:25 1017 30.03 846 24.98 12.1 53.7 78 8.5 47.2
23:30 1017 30.03 846 24.98 11.9 53.4 80 8.6 47.5
23:35 1017 30.03 846 24.98 11.7 53 81 8.4 47.2
23:40 1017 30.03 846 24.98 11.8 53.3 77 7.9 46.3
23:45 1017 30.03 846 24.98 12.3 54.1 73 7.6 45.7
23:50 1017 30.03 846 24.98 12.2 53.9 77 8.2 46.8
23:55 1017 30.03 846 24.98 11.8 53.2 78 8.2 46.7
24:00 1017 30.03 847 25.01 11.7 53 77 7.9 46.2